Аэропорт: Звартноц. Ереван

ICAO: UDYZ

METAR:
2018/05/20 23:00
UDYZ 202300Z 01001KT 9999 BKN040CB 16/14 Q1017 R09/190065 NOSIG
METAR:
2018/05/20 18:00
TAF UDYZ 201707Z 2018/2118 04006KT 9999 SCT040 BKN100 
      TEMPO 2018/2106 VRB20G30KT -TSRA BKN030CB